Airfield :
LOGIN :

Register | Disclaimer

   EN    FR    IT 

 










Legend :    VFR   Marginal VFR   IFR   Intensive IFR   Very Intensive IFR
Visi :
Ceiling :
>= 8 km
>= 3000ft
5 to 8 km
1000 to 3000 ft
1500m to 5 km
500 to 1000 ft
800 to 1500m
200 to 500 ft
< 800m
< 200 ft
Symbols :   Thunderstorms  Fog  Heavy snow  Heavy precipitations  Wind > 20 kt
SIGMETs :     Misc.  Thunderstorms  Icing  Turbulence  Mountain Waves  Volcanic Ashes







- Airport Elevation : 40 ft
- IATA code : RMI


LIPR - Federico Fellini Int. Rimini

CURRENT METAR :
  • 211120Z 31003KT 280V350 9999 FEW040 11/04 Q1014

EXPIRED METARs :
  • 211050Z 32005KT 300V360 9999 SCT035 10/04 Q1014
  • 211020Z 31005KT 280V350 9999 SCT035 10/05 Q1014
  • 210950Z VRB02KT 9999 BKN035 10/06 Q1014
  • 210920Z VRB01KT 9999 BKN035 09/06 Q1014
  • 210850Z VRB01KT 9999 BKN035 08/06 Q1014

TAF TAF LIPR
Valid from the 21 at 12:00 until the 21 at 21:00 UTC


211100Z 2112/2121 26008KT 9999 SCT030
No reported NOTAMs for that airfield.



MET'MAP, your aeronautical weather chart ! - Copyright ORBIFLY December 2007 - Disclaimer

ORBIFLY MET'MAP TEAM :

Programming & Development : Alexandra Zaïnal
Concept & Development : Baudouin d'Aumeries
Co-Development & Prog : Marc-Olivier Méhu
Technical & hardware support : Manuel Goepfert

Contact : metmap@orbifly.com




SOURCES & CREDITS :

   NOAA